sensor_id;sensor_type;location;lat;lon;timestamp;temperature;humidity
55785;DHT22;41709;52.536;5.688;2023-06-14T00:02:12;18.00;53.80
55785;DHT22;41709;52.536;5.688;2023-06-14T00:04:38;18.00;53.70
55785;DHT22;41709;52.536;5.688;2023-06-14T00:07:05;18.10;53.90
55785;DHT22;41709;52.536;5.688;2023-06-14T00:09:33;17.90;53.50
55785;DHT22;41709;52.536;5.688;2023-06-14T00:11:59;17.90;53.90
55785;DHT22;41709;52.536;5.688;2023-06-14T00:14:24;17.90;54.10
55785;DHT22;41709;52.536;5.688;2023-06-14T00:16:50;17.90;54.00
55785;DHT22;41709;52.536;5.688;2023-06-14T00:19:18;17.90;54.10
55785;DHT22;41709;52.536;5.688;2023-06-14T00:21:43;17.80;54.70
55785;DHT22;41709;52.536;5.688;2023-06-14T00:24:09;17.70;54.30
55785;DHT22;41709;52.536;5.688;2023-06-14T00:26:34;17.60;54.20
55785;DHT22;41709;52.536;5.688;2023-06-14T00:29:00;17.60;53.90
55785;DHT22;41709;52.536;5.688;2023-06-14T00:31:26;17.60;54.20
55785;DHT22;41709;52.536;5.688;2023-06-14T00:33:51;17.70;54.20
55785;DHT22;41709;52.536;5.688;2023-06-14T00:36:17;17.60;53.70
55785;DHT22;41709;52.536;5.688;2023-06-14T00:38:42;17.50;53.80
55785;DHT22;41709;52.536;5.688;2023-06-14T00:41:08;17.50;54.00
55785;DHT22;41709;52.536;5.688;2023-06-14T00:43:34;17.50;53.90
55785;DHT22;41709;52.536;5.688;2023-06-14T00:46:00;17.40;53.90
55785;DHT22;41709;52.536;5.688;2023-06-14T00:48:26;17.40;54.10
55785;DHT22;41709;52.536;5.688;2023-06-14T00:50:52;17.40;54.00
55785;DHT22;41709;52.536;5.688;2023-06-14T00:53:19;17.40;54.10
55785;DHT22;41709;52.536;5.688;2023-06-14T00:55:46;17.30;54.10
55785;DHT22;41709;52.536;5.688;2023-06-14T00:58:12;17.30;54.20
55785;DHT22;41709;52.536;5.688;2023-06-14T01:00:39;17.30;54.00
55785;DHT22;41709;52.536;5.688;2023-06-14T01:03:04;17.20;54.20
55785;DHT22;41709;52.536;5.688;2023-06-14T01:05:30;17.20;54.00
55785;DHT22;41709;52.536;5.688;2023-06-14T01:11:05;17.10;54.40
55785;DHT22;41709;52.536;5.688;2023-06-14T01:13:37;17.00;54.40
55785;DHT22;41709;52.536;5.688;2023-06-14T01:16:04;16.90;54.60
55785;DHT22;41709;52.536;5.688;2023-06-14T01:18:30;16.90;54.40
55785;DHT22;41709;52.536;5.688;2023-06-14T01:20:57;16.80;54.70
55785;DHT22;41709;52.536;5.688;2023-06-14T01:23:23;16.80;54.80
55785;DHT22;41709;52.536;5.688;2023-06-14T01:25:50;16.80;55.40
55785;DHT22;41709;52.536;5.688;2023-06-14T01:28:20;16.70;55.00
55785;DHT22;41709;52.536;5.688;2023-06-14T01:30:49;16.70;55.30
55785;DHT22;41709;52.536;5.688;2023-06-14T01:33:22;16.60;54.90
55785;DHT22;41709;52.536;5.688;2023-06-14T01:35:51;16.60;55.20
55785;DHT22;41709;52.536;5.688;2023-06-14T01:38:19;16.60;55.20
55785;DHT22;41709;52.536;5.688;2023-06-14T01:40:45;16.50;56.00
55785;DHT22;41709;52.536;5.688;2023-06-14T01:43:13;16.50;55.50
55785;DHT22;41709;52.536;5.688;2023-06-14T01:45:40;16.30;55.60
55785;DHT22;41709;52.536;5.688;2023-06-14T01:48:07;16.20;56.00
55785;DHT22;41709;52.536;5.688;2023-06-14T01:50:33;16.20;56.00
55785;DHT22;41709;52.536;5.688;2023-06-14T01:52:59;16.20;56.00
55785;DHT22;41709;52.536;5.688;2023-06-14T01:55:25;16.10;56.30
55785;DHT22;41709;52.536;5.688;2023-06-14T01:57:51;16.00;56.40
55785;DHT22;41709;52.536;5.688;2023-06-14T02:00:17;16.00;56.70
55785;DHT22;41709;52.536;5.688;2023-06-14T02:02:44;16.00;56.90
55785;DHT22;41709;52.536;5.688;2023-06-14T02:05:09;16.00;57.30
55785;DHT22;41709;52.536;5.688;2023-06-14T02:07:36;16.00;57.10
55785;DHT22;41709;52.536;5.688;2023-06-14T02:10:02;16.00;57.10
55785;DHT22;41709;52.536;5.688;2023-06-14T02:12:28;16.00;57.30
55785;DHT22;41709;52.536;5.688;2023-06-14T02:14:53;15.90;57.20
55785;DHT22;41709;52.536;5.688;2023-06-14T02:17:19;15.90;57.50
55785;DHT22;41709;52.536;5.688;2023-06-14T02:19:45;15.90;57.70
55785;DHT22;41709;52.536;5.688;2023-06-14T02:22:10;15.90;57.50
55785;DHT22;41709;52.536;5.688;2023-06-14T02:24:36;15.90;57.90
55785;DHT22;41709;52.536;5.688;2023-06-14T02:27:02;15.80;58.00
55785;DHT22;41709;52.536;5.688;2023-06-14T02:29:27;15.80;58.20
55785;DHT22;41709;52.536;5.688;2023-06-14T02:31:53;15.70;58.30
55785;DHT22;41709;52.536;5.688;2023-06-14T02:34:18;15.60;58.60
55785;DHT22;41709;52.536;5.688;2023-06-14T02:36:45;15.60;58.60
55785;DHT22;41709;52.536;5.688;2023-06-14T02:39:13;15.60;59.00
55785;DHT22;41709;52.536;5.688;2023-06-14T02:41:39;15.50;59.10
55785;DHT22;41709;52.536;5.688;2023-06-14T02:44:05;15.50;59.40
55785;DHT22;41709;52.536;5.688;2023-06-14T02:46:31;15.50;59.40
55785;DHT22;41709;52.536;5.688;2023-06-14T02:48:57;15.50;59.40
55785;DHT22;41709;52.536;5.688;2023-06-14T02:51:22;15.40;59.50
55785;DHT22;41709;52.536;5.688;2023-06-14T02:53:48;15.40;59.70
55785;DHT22;41709;52.536;5.688;2023-06-14T02:56:13;15.40;59.30
55785;DHT22;41709;52.536;5.688;2023-06-14T02:58:39;15.40;59.50
55785;DHT22;41709;52.536;5.688;2023-06-14T03:01:06;15.40;59.90
55785;DHT22;41709;52.536;5.688;2023-06-14T03:03:33;15.40;59.80
55785;DHT22;41709;52.536;5.688;2023-06-14T03:05:59;15.40;60.10
55785;DHT22;41709;52.536;5.688;2023-06-14T03:08:29;15.30;59.80
55785;DHT22;41709;52.536;5.688;2023-06-14T03:10:55;15.30;59.90
55785;DHT22;41709;52.536;5.688;2023-06-14T03:13:21;15.30;60.20
55785;DHT22;41709;52.536;5.688;2023-06-14T03:15:47;15.30;60.20
55785;DHT22;41709;52.536;5.688;2023-06-14T03:18:15;15.20;60.20
55785;DHT22;41709;52.536;5.688;2023-06-14T03:20:41;15.30;60.40
55785;DHT22;41709;52.536;5.688;2023-06-14T03:23:08;15.10;60.50
55785;DHT22;41709;52.536;5.688;2023-06-14T03:25:34;15.10;60.90
55785;DHT22;41709;52.536;5.688;2023-06-14T03:28:04;15.10;61.20
55785;DHT22;41709;52.536;5.688;2023-06-14T03:30:30;15.00;61.10
55785;DHT22;41709;52.536;5.688;2023-06-14T03:32:56;15.00;61.50
55785;DHT22;41709;52.536;5.688;2023-06-14T03:35:23;15.00;61.40
55785;DHT22;41709;52.536;5.688;2023-06-14T03:37:49;15.10;61.90
55785;DHT22;41709;52.536;5.688;2023-06-14T03:40:17;15.00;61.50
55785;DHT22;41709;52.536;5.688;2023-06-14T03:42:43;14.90;61.70
55785;DHT22;41709;52.536;5.688;2023-06-14T03:45:09;14.90;62.00
55785;DHT22;41709;52.536;5.688;2023-06-14T03:47:35;14.90;62.30
55785;DHT22;41709;52.536;5.688;2023-06-14T03:50:04;14.80;62.30
55785;DHT22;41709;52.536;5.688;2023-06-14T03:52:31;14.80;62.50
55785;DHT22;41709;52.536;5.688;2023-06-14T03:54:56;14.80;62.60
55785;DHT22;41709;52.536;5.688;2023-06-14T03:57:23;14.80;62.60
55785;DHT22;41709;52.536;5.688;2023-06-14T03:59:49;14.80;62.60
55785;DHT22;41709;52.536;5.688;2023-06-14T04:02:15;14.80;62.50
55785;DHT22;41709;52.536;5.688;2023-06-14T04:04:41;14.80;62.80
55785;DHT22;41709;52.536;5.688;2023-06-14T04:07:10;14.80;62.90
55785;DHT22;41709;52.536;5.688;2023-06-14T04:09:37;14.80;63.10
55785;DHT22;41709;52.536;5.688;2023-06-14T04:12:04;14.70;63.20
55785;DHT22;41709;52.536;5.688;2023-06-14T04:14:29;14.70;63.50
55785;DHT22;41709;52.536;5.688;2023-06-14T04:16:56;14.70;63.50
55785;DHT22;41709;52.536;5.688;2023-06-14T04:19:21;14.80;63.50
55785;DHT22;41709;52.536;5.688;2023-06-14T04:21:47;14.70;63.80
55785;DHT22;41709;52.536;5.688;2023-06-14T04:24:13;14.70;63.80
55785;DHT22;41709;52.536;5.688;2023-06-14T04:26:41;14.70;63.90
55785;DHT22;41709;52.536;5.688;2023-06-14T04:29:06;14.70;63.90
55785;DHT22;41709;52.536;5.688;2023-06-14T04:31:32;14.70;63.70
55785;DHT22;41709;52.536;5.688;2023-06-14T04:34:03;14.80;64.00
55785;DHT22;41709;52.536;5.688;2023-06-14T04:36:34;14.90;64.10
55785;DHT22;41709;52.536;5.688;2023-06-14T04:39:05;14.90;64.30
55785;DHT22;41709;52.536;5.688;2023-06-14T04:41:31;14.90;64.20
55785;DHT22;41709;52.536;5.688;2023-06-14T04:43:57;14.90;63.70
55785;DHT22;41709;52.536;5.688;2023-06-14T04:46:24;14.90;64.00
55785;DHT22;41709;52.536;5.688;2023-06-14T04:48:49;14.90;64.30
55785;DHT22;41709;52.536;5.688;2023-06-14T04:51:16;15.00;64.30
55785;DHT22;41709;52.536;5.688;2023-06-14T04:53:42;15.00;64.30
55785;DHT22;41709;52.536;5.688;2023-06-14T04:56:09;15.00;64.30
55785;DHT22;41709;52.536;5.688;2023-06-14T04:58:35;15.10;64.00
55785;DHT22;41709;52.536;5.688;2023-06-14T05:01:01;15.20;64.20
55785;DHT22;41709;52.536;5.688;2023-06-14T05:03:27;15.20;64.20
55785;DHT22;41709;52.536;5.688;2023-06-14T05:05:53;15.30;63.90
55785;DHT22;41709;52.536;5.688;2023-06-14T05:08:19;15.30;63.90
55785;DHT22;41709;52.536;5.688;2023-06-14T05:10:46;15.30;64.60
55785;DHT22;41709;52.536;5.688;2023-06-14T05:13:11;15.40;63.50
55785;DHT22;41709;52.536;5.688;2023-06-14T05:15:37;15.50;63.70
55785;DHT22;41709;52.536;5.688;2023-06-14T05:18:02;15.70;63.40
55785;DHT22;41709;52.536;5.688;2023-06-14T05:20:28;15.60;63.00
55785;DHT22;41709;52.536;5.688;2023-06-14T05:22:54;15.70;63.20
55785;DHT22;41709;52.536;5.688;2023-06-14T05:25:20;15.70;63.00
55785;DHT22;41709;52.536;5.688;2023-06-14T05:27:46;15.80;62.90
55785;DHT22;41709;52.536;5.688;2023-06-14T05:30:12;15.80;62.70
55785;DHT22;41709;52.536;5.688;2023-06-14T05:32:38;15.90;62.50
55785;DHT22;41709;52.536;5.688;2023-06-14T05:35:04;16.00;62.50
55785;DHT22;41709;52.536;5.688;2023-06-14T05:37:30;16.10;63.30
55785;DHT22;41709;52.536;5.688;2023-06-14T05:39:56;16.20;62.20
55785;DHT22;41709;52.536;5.688;2023-06-14T05:42:22;16.30;62.00
55785;DHT22;41709;52.536;5.688;2023-06-14T05:44:47;16.30;61.80
55785;DHT22;41709;52.536;5.688;2023-06-14T05:47:13;16.40;61.80
55785;DHT22;41709;52.536;5.688;2023-06-14T05:49:38;16.40;62.10
55785;DHT22;41709;52.536;5.688;2023-06-14T05:52:04;16.40;62.00
55785;DHT22;41709;52.536;5.688;2023-06-14T05:54:30;16.50;62.00
55785;DHT22;41709;52.536;5.688;2023-06-14T05:56:56;16.60;61.50
55785;DHT22;41709;52.536;5.688;2023-06-14T05:59:29;16.70;62.10
55785;DHT22;41709;52.536;5.688;2023-06-14T06:01:55;16.90;60.70
55785;DHT22;41709;52.536;5.688;2023-06-14T06:04:20;17.00;60.10
55785;DHT22;41709;52.536;5.688;2023-06-14T06:06:46;17.10;60.20
55785;DHT22;41709;52.536;5.688;2023-06-14T06:09:13;17.20;59.80
55785;DHT22;41709;52.536;5.688;2023-06-14T06:11:40;17.30;59.40
55785;DHT22;41709;52.536;5.688;2023-06-14T06:14:05;17.40;59.30
55785;DHT22;41709;52.536;5.688;2023-06-14T06:16:31;17.50;59.70
55785;DHT22;41709;52.536;5.688;2023-06-14T06:18:56;17.70;59.00
55785;DHT22;41709;52.536;5.688;2023-06-14T06:21:22;17.80;58.60
55785;DHT22;41709;52.536;5.688;2023-06-14T06:23:47;18.00;58.20
55785;DHT22;41709;52.536;5.688;2023-06-14T06:26:13;18.20;57.60
55785;DHT22;41709;52.536;5.688;2023-06-14T06:28:39;18.20;57.30
55785;DHT22;41709;52.536;5.688;2023-06-14T06:31:04;18.40;56.60
55785;DHT22;41709;52.536;5.688;2023-06-14T06:33:30;18.50;56.40
55785;DHT22;41709;52.536;5.688;2023-06-14T06:35:56;18.70;56.20
55785;DHT22;41709;52.536;5.688;2023-06-14T06:38:21;18.80;56.40
55785;DHT22;41709;52.536;5.688;2023-06-14T06:40:47;18.90;56.20
55785;DHT22;41709;52.536;5.688;2023-06-14T06:43:12;19.00;56.10
55785;DHT22;41709;52.536;5.688;2023-06-14T06:45:39;19.10;55.30
55785;DHT22;41709;52.536;5.688;2023-06-14T06:48:05;19.30;55.00
55785;DHT22;41709;52.536;5.688;2023-06-14T06:50:31;19.40;55.10
55785;DHT22;41709;52.536;5.688;2023-06-14T06:52:58;19.40;55.00
55785;DHT22;41709;52.536;5.688;2023-06-14T06:55:23;19.60;54.90
55785;DHT22;41709;52.536;5.688;2023-06-14T06:57:49;19.60;54.50
55785;DHT22;41709;52.536;5.688;2023-06-14T07:00:15;19.60;54.00
55785;DHT22;41709;52.536;5.688;2023-06-14T07:02:41;19.60;53.50
55785;DHT22;41709;52.536;5.688;2023-06-14T07:05:07;19.80;53.50
55785;DHT22;41709;52.536;5.688;2023-06-14T07:07:34;19.80;52.90
55785;DHT22;41709;52.536;5.688;2023-06-14T07:09:59;19.90;52.90
55785;DHT22;41709;52.536;5.688;2023-06-14T07:12:25;20.00;53.00
55785;DHT22;41709;52.536;5.688;2023-06-14T07:14:51;20.10;53.10
55785;DHT22;41709;52.536;5.688;2023-06-14T07:17:17;20.30;52.40
55785;DHT22;41709;52.536;5.688;2023-06-14T07:19:44;20.30;51.70
55785;DHT22;41709;52.536;5.688;2023-06-14T07:22:10;20.40;51.40
55785;DHT22;41709;52.536;5.688;2023-06-14T07:24:35;20.50;51.20
55785;DHT22;41709;52.536;5.688;2023-06-14T07:27:02;20.60;51.90
55785;DHT22;41709;52.536;5.688;2023-06-14T07:29:28;20.70;50.10
55785;DHT22;41709;52.536;5.688;2023-06-14T07:31:54;20.80;49.40
55785;DHT22;41709;52.536;5.688;2023-06-14T07:34:19;20.90;50.30
55785;DHT22;41709;52.536;5.688;2023-06-14T07:36:45;21.00;49.60
55785;DHT22;41709;52.536;5.688;2023-06-14T07:39:11;21.20;48.80
55785;DHT22;41709;52.536;5.688;2023-06-14T07:41:37;21.30;48.90
55785;DHT22;41709;52.536;5.688;2023-06-14T07:44:03;21.30;48.00
55785;DHT22;41709;52.536;5.688;2023-06-14T07:46:28;21.50;48.00
55785;DHT22;41709;52.536;5.688;2023-06-14T07:48:54;21.60;47.50
55785;DHT22;41709;52.536;5.688;2023-06-14T07:51:19;21.70;47.60
55785;DHT22;41709;52.536;5.688;2023-06-14T07:53:47;21.70;47.00
55785;DHT22;41709;52.536;5.688;2023-06-14T07:56:13;21.70;46.90
55785;DHT22;41709;52.536;5.688;2023-06-14T07:58:38;21.80;46.70
55785;DHT22;41709;52.536;5.688;2023-06-14T08:01:04;21.90;46.30
55785;DHT22;41709;52.536;5.688;2023-06-14T08:03:32;22.00;46.40
55785;DHT22;41709;52.536;5.688;2023-06-14T08:05:57;22.10;46.90
55785;DHT22;41709;52.536;5.688;2023-06-14T08:08:23;22.20;46.70
55785;DHT22;41709;52.536;5.688;2023-06-14T08:10:49;22.20;46.70
55785;DHT22;41709;52.536;5.688;2023-06-14T08:13:14;22.20;47.00
55785;DHT22;41709;52.536;5.688;2023-06-14T08:15:40;22.20;46.00
55785;DHT22;41709;52.536;5.688;2023-06-14T08:18:05;22.20;46.10
55785;DHT22;41709;52.536;5.688;2023-06-14T08:20:31;22.30;45.80
55785;DHT22;41709;52.536;5.688;2023-06-14T08:22:57;22.30;45.90
55785;DHT22;41709;52.536;5.688;2023-06-14T08:25:23;22.20;45.60
55785;DHT22;41709;52.536;5.688;2023-06-14T08:27:49;22.20;45.30
55785;DHT22;41709;52.536;5.688;2023-06-14T08:30:16;22.20;44.70
55785;DHT22;41709;52.536;5.688;2023-06-14T08:32:43;22.30;45.10
55785;DHT22;41709;52.536;5.688;2023-06-14T08:35:08;22.30;45.50
55785;DHT22;41709;52.536;5.688;2023-06-14T08:37:38;22.50;44.50
55785;DHT22;41709;52.536;5.688;2023-06-14T08:40:18;22.50;44.40
55785;DHT22;41709;52.536;5.688;2023-06-14T08:42:45;22.50;44.80
55785;DHT22;41709;52.536;5.688;2023-06-14T08:45:12;22.60;43.80
55785;DHT22;41709;52.536;5.688;2023-06-14T08:47:38;22.60;43.40
55785;DHT22;41709;52.536;5.688;2023-06-14T08:50:05;22.60;44.10
55785;DHT22;41709;52.536;5.688;2023-06-14T08:52:35;22.60;44.50
55785;DHT22;41709;52.536;5.688;2023-06-14T08:55:06;22.70;44.70
55785;DHT22;41709;52.536;5.688;2023-06-14T08:57:36;22.70;45.10
55785;DHT22;41709;52.536;5.688;2023-06-14T09:00:03;22.80;45.50
55785;DHT22;41709;52.536;5.688;2023-06-14T09:02:39;22.80;45.10
55785;DHT22;41709;52.536;5.688;2023-06-14T09:05:12;22.80;45.60
55785;DHT22;41709;52.536;5.688;2023-06-14T09:07:44;22.80;45.10
55785;DHT22;41709;52.536;5.688;2023-06-14T09:10:12;22.80;44.90
55785;DHT22;41709;52.536;5.688;2023-06-14T09:12:38;22.70;44.80
55785;DHT22;41709;52.536;5.688;2023-06-14T09:15:05;22.60;44.50
55785;DHT22;41709;52.536;5.688;2023-06-14T09:17:35;22.40;45.00
55785;DHT22;41709;52.536;5.688;2023-06-14T09:20:04;22.30;45.40
55785;DHT22;41709;52.536;5.688;2023-06-14T09:22:38;22.30;45.40
55785;DHT22;41709;52.536;5.688;2023-06-14T09:25:05;22.30;45.50
55785;DHT22;41709;52.536;5.688;2023-06-14T09:27:31;22.30;46.20
55785;DHT22;41709;52.536;5.688;2023-06-14T09:29:57;22.20;45.60
55785;DHT22;41709;52.536;5.688;2023-06-14T09:32:23;22.20;45.80
55785;DHT22;41709;52.536;5.688;2023-06-14T09:34:49;22.20;45.50
55785;DHT22;41709;52.536;5.688;2023-06-14T09:37:29;22.20;45.70
55785;DHT22;41709;52.536;5.688;2023-06-14T09:39:55;22.10;45.80
55785;DHT22;41709;52.536;5.688;2023-06-14T09:42:21;22.20;46.20
55785;DHT22;41709;52.536;5.688;2023-06-14T09:44:51;22.20;45.70
55785;DHT22;41709;52.536;5.688;2023-06-14T09:47:17;22.20;45.20
55785;DHT22;41709;52.536;5.688;2023-06-14T09:49:42;22.10;45.60
55785;DHT22;41709;52.536;5.688;2023-06-14T09:52:14;22.10;45.50
55785;DHT22;41709;52.536;5.688;2023-06-14T09:54:42;22.00;45.80
55785;DHT22;41709;52.536;5.688;2023-06-14T09:57:11;22.00;45.10
55785;DHT22;41709;52.536;5.688;2023-06-14T09:59:41;22.00;46.20
55785;DHT22;41709;52.536;5.688;2023-06-14T10:02:18;22.20;45.50
55785;DHT22;41709;52.536;5.688;2023-06-14T10:04:53;22.30;43.90
55785;DHT22;41709;52.536;5.688;2023-06-14T10:07:20;22.30;42.90
55785;DHT22;41709;52.536;5.688;2023-06-14T10:09:47;22.20;43.50
55785;DHT22;41709;52.536;5.688;2023-06-14T10:12:17;22.20;42.70
55785;DHT22;41709;52.536;5.688;2023-06-14T10:14:51;22.10;43.40
55785;DHT22;41709;52.536;5.688;2023-06-14T10:22:49;22.10;43.10
55785;DHT22;41709;52.536;5.688;2023-06-14T10:25:31;22.20;42.80
55785;DHT22;41709;52.536;5.688;2023-06-14T10:28:18;22.30;43.00
55785;DHT22;41709;52.536;5.688;2023-06-14T10:33:29;22.30;43.50
55785;DHT22;41709;52.536;5.688;2023-06-14T10:36:27;22.30;43.00
55785;DHT22;41709;52.536;5.688;2023-06-14T10:39:06;22.40;43.70
55785;DHT22;41709;52.536;5.688;2023-06-14T10:41:37;22.40;43.20
55785;DHT22;41709;52.536;5.688;2023-06-14T10:46:53;22.30;43.70
55785;DHT22;41709;52.536;5.688;2023-06-14T10:49:19;22.40;42.50
55785;DHT22;41709;52.536;5.688;2023-06-14T10:51:49;22.40;42.70
55785;DHT22;41709;52.536;5.688;2023-06-14T10:54:22;22.40;42.60
55785;DHT22;41709;52.536;5.688;2023-06-14T10:56:50;22.40;43.20
55785;DHT22;41709;52.536;5.688;2023-06-14T10:59:17;22.30;43.00
55785;DHT22;41709;52.536;5.688;2023-06-14T11:04:51;22.40;43.60
55785;DHT22;41709;52.536;5.688;2023-06-14T11:10:28;22.20;43.00
55785;DHT22;41709;52.536;5.688;2023-06-14T11:12:55;22.30;44.10
55785;DHT22;41709;52.536;5.688;2023-06-14T11:15:30;22.30;43.40
55785;DHT22;41709;52.536;5.688;2023-06-14T11:17:57;22.40;43.40
55785;DHT22;41709;52.536;5.688;2023-06-14T11:20:27;22.20;43.90
55785;DHT22;41709;52.536;5.688;2023-06-14T11:22:53;22.30;44.10
55785;DHT22;41709;52.536;5.688;2023-06-14T11:25:19;22.30;44.20
55785;DHT22;41709;52.536;5.688;2023-06-14T11:27:45;22.30;44.50
55785;DHT22;41709;52.536;5.688;2023-06-14T11:30:12;22.30;43.60
55785;DHT22;41709;52.536;5.688;2023-06-14T11:32:39;22.30;43.20
55785;DHT22;41709;52.536;5.688;2023-06-14T11:35:05;22.30;42.70
55785;DHT22;41709;52.536;5.688;2023-06-14T11:37:31;22.20;42.50
55785;DHT22;41709;52.536;5.688;2023-06-14T11:40:03;22.20;42.40
55785;DHT22;41709;52.536;5.688;2023-06-14T11:42:34;22.20;42.70
55785;DHT22;41709;52.536;5.688;2023-06-14T11:45:00;22.10;43.00
55785;DHT22;41709;52.536;5.688;2023-06-14T11:47:33;22.30;43.10
55785;DHT22;41709;52.536;5.688;2023-06-14T11:50:00;22.30;42.40
55785;DHT22;41709;52.536;5.688;2023-06-14T11:52:25;22.60;41.50
55785;DHT22;41709;52.536;5.688;2023-06-14T11:54:51;22.50;42.00
55785;DHT22;41709;52.536;5.688;2023-06-14T11:57:18;22.80;42.10
55785;DHT22;41709;52.536;5.688;2023-06-14T11:59:44;22.60;41.40
55785;DHT22;41709;52.536;5.688;2023-06-14T12:02:21;22.60;41.10
55785;DHT22;41709;52.536;5.688;2023-06-14T12:04:47;22.70;41.00
55785;DHT22;41709;52.536;5.688;2023-06-14T12:07:16;22.90;40.80
55785;DHT22;41709;52.536;5.688;2023-06-14T12:12:23;23.10;41.70
55785;DHT22;41709;52.536;5.688;2023-06-14T12:14:53;23.20;41.90
55785;DHT22;41709;52.536;5.688;2023-06-14T12:17:19;23.10;40.70
55785;DHT22;41709;52.536;5.688;2023-06-14T12:19:46;23.10;40.50
55785;DHT22;41709;52.536;5.688;2023-06-14T12:22:14;23.00;40.90
55785;DHT22;41709;52.536;5.688;2023-06-14T12:24:44;23.00;41.10
55785;DHT22;41709;52.536;5.688;2023-06-14T12:27:10;23.00;41.00
55785;DHT22;41709;52.536;5.688;2023-06-14T12:29:41;23.00;40.50
55785;DHT22;41709;52.536;5.688;2023-06-14T12:32:10;23.10;41.20
55785;DHT22;41709;52.536;5.688;2023-06-14T12:34:36;23.10;40.20
55785;DHT22;41709;52.536;5.688;2023-06-14T12:37:02;23.20;40.10
55785;DHT22;41709;52.536;5.688;2023-06-14T12:39:30;23.20;40.60
55785;DHT22;41709;52.536;5.688;2023-06-14T12:41:59;23.30;40.30
55785;DHT22;41709;52.536;5.688;2023-06-14T12:44:24;23.40;40.90
55785;DHT22;41709;52.536;5.688;2023-06-14T12:46:50;23.40;39.40
55785;DHT22;41709;52.536;5.688;2023-06-14T12:49:18;23.40;39.10
55785;DHT22;41709;52.536;5.688;2023-06-14T12:51:45;23.60;39.40
55785;DHT22;41709;52.536;5.688;2023-06-14T12:54:10;23.60;39.10
55785;DHT22;41709;52.536;5.688;2023-06-14T12:56:37;23.60;38.80
55785;DHT22;41709;52.536;5.688;2023-06-14T12:59:03;23.60;39.30
55785;DHT22;41709;52.536;5.688;2023-06-14T13:01:28;23.80;38.90
55785;DHT22;41709;52.536;5.688;2023-06-14T13:03:54;23.80;39.90
55785;DHT22;41709;52.536;5.688;2023-06-14T13:06:23;23.80;39.20
55785;DHT22;41709;52.536;5.688;2023-06-14T13:08:49;23.80;39.60
55785;DHT22;41709;52.536;5.688;2023-06-14T13:11:15;23.80;39.20
55785;DHT22;41709;52.536;5.688;2023-06-14T13:13:41;23.80;39.20
55785;DHT22;41709;52.536;5.688;2023-06-14T13:16:07;23.90;39.40
55785;DHT22;41709;52.536;5.688;2023-06-14T13:18:32;24.10;38.80
55785;DHT22;41709;52.536;5.688;2023-06-14T13:20:58;24.20;39.00
55785;DHT22;41709;52.536;5.688;2023-06-14T13:23:23;24.40;39.10
55785;DHT22;41709;52.536;5.688;2023-06-14T13:25:49;24.40;38.70
55785;DHT22;41709;52.536;5.688;2023-06-14T13:28:17;24.50;38.20
55785;DHT22;41709;52.536;5.688;2023-06-14T13:30:43;24.60;39.80
55785;DHT22;41709;52.536;5.688;2023-06-14T13:33:09;24.60;38.90
55785;DHT22;41709;52.536;5.688;2023-06-14T13:35:34;24.60;39.50
55785;DHT22;41709;52.536;5.688;2023-06-14T13:38:00;24.70;39.00
55785;DHT22;41709;52.536;5.688;2023-06-14T13:40:26;24.80;37.80
55785;DHT22;41709;52.536;5.688;2023-06-14T13:42:51;24.90;37.50
55785;DHT22;41709;52.536;5.688;2023-06-14T13:45:17;25.00;37.60
55785;DHT22;41709;52.536;5.688;2023-06-14T13:47:43;25.10;37.80
55785;DHT22;41709;52.536;5.688;2023-06-14T13:50:09;25.00;37.80
55785;DHT22;41709;52.536;5.688;2023-06-14T13:52:34;25.10;38.40
55785;DHT22;41709;52.536;5.688;2023-06-14T13:55:00;25.10;39.00
55785;DHT22;41709;52.536;5.688;2023-06-14T13:57:26;25.10;37.80
55785;DHT22;41709;52.536;5.688;2023-06-14T13:59:51;25.10;37.80
55785;DHT22;41709;52.536;5.688;2023-06-14T14:02:19;25.00;37.90
55785;DHT22;41709;52.536;5.688;2023-06-14T14:04:44;25.10;37.70
55785;DHT22;41709;52.536;5.688;2023-06-14T14:07:16;25.20;37.80
55785;DHT22;41709;52.536;5.688;2023-06-14T14:09:42;25.30;37.80
55785;DHT22;41709;52.536;5.688;2023-06-14T14:12:08;25.40;38.00
55785;DHT22;41709;52.536;5.688;2023-06-14T14:14:34;25.40;37.20
55785;DHT22;41709;52.536;5.688;2023-06-14T14:16:59;25.30;36.70
55785;DHT22;41709;52.536;5.688;2023-06-14T14:19:25;25.30;37.40
55785;DHT22;41709;52.536;5.688;2023-06-14T14:21:51;25.40;37.60
55785;DHT22;41709;52.536;5.688;2023-06-14T14:24:18;25.50;37.10
55785;DHT22;41709;52.536;5.688;2023-06-14T14:26:44;25.50;37.10
55785;DHT22;41709;52.536;5.688;2023-06-14T14:29:12;25.50;37.30
55785;DHT22;41709;52.536;5.688;2023-06-14T14:31:38;25.60;37.40
55785;DHT22;41709;52.536;5.688;2023-06-14T14:34:04;25.70;37.00
55785;DHT22;41709;52.536;5.688;2023-06-14T14:36:30;25.70;38.50
55785;DHT22;41709;52.536;5.688;2023-06-14T14:38:55;25.60;37.50
55785;DHT22;41709;52.536;5.688;2023-06-14T14:41:21;25.50;37.40
55785;DHT22;41709;52.536;5.688;2023-06-14T14:43:46;25.60;38.10
55785;DHT22;41709;52.536;5.688;2023-06-14T14:46:12;25.60;37.70
55785;DHT22;41709;52.536;5.688;2023-06-14T14:48:37;25.60;36.90
55785;DHT22;41709;52.536;5.688;2023-06-14T14:51:03;25.70;37.10
55785;DHT22;41709;52.536;5.688;2023-06-14T14:53:28;25.80;36.90
55785;DHT22;41709;52.536;5.688;2023-06-14T14:55:54;25.90;36.80
55785;DHT22;41709;52.536;5.688;2023-06-14T14:58:20;26.10;36.70
55785;DHT22;41709;52.536;5.688;2023-06-14T15:00:46;26.10;36.70
55785;DHT22;41709;52.536;5.688;2023-06-14T15:03:12;26.00;36.70
55785;DHT22;41709;52.536;5.688;2023-06-14T15:05:37;26.00;35.90
55785;DHT22;41709;52.536;5.688;2023-06-14T15:08:03;25.80;36.90
55785;DHT22;41709;52.536;5.688;2023-06-14T15:10:30;25.70;37.10
55785;DHT22;41709;52.536;5.688;2023-06-14T15:12:56;25.70;37.50
55785;DHT22;41709;52.536;5.688;2023-06-14T15:15:22;25.80;37.70
55785;DHT22;41709;52.536;5.688;2023-06-14T15:17:47;25.70;37.80
55785;DHT22;41709;52.536;5.688;2023-06-14T15:20:13;25.70;37.80
55785;DHT22;41709;52.536;5.688;2023-06-14T15:22:40;25.70;37.80
55785;DHT22;41709;52.536;5.688;2023-06-14T15:25:06;25.70;38.50
55785;DHT22;41709;52.536;5.688;2023-06-14T15:27:31;25.70;37.90
55785;DHT22;41709;52.536;5.688;2023-06-14T15:29:57;25.70;38.50
55785;DHT22;41709;52.536;5.688;2023-06-14T15:32:22;25.70;37.40
55785;DHT22;41709;52.536;5.688;2023-06-14T15:34:48;25.80;37.90
55785;DHT22;41709;52.536;5.688;2023-06-14T15:37:13;25.80;38.00
55785;DHT22;41709;52.536;5.688;2023-06-14T15:39:39;25.80;38.50
55785;DHT22;41709;52.536;5.688;2023-06-14T15:42:05;25.70;38.10
55785;DHT22;41709;52.536;5.688;2023-06-14T15:44:31;25.60;38.20
55785;DHT22;41709;52.536;5.688;2023-06-14T15:46:57;25.60;38.00
55785;DHT22;41709;52.536;5.688;2023-06-14T15:49:23;25.60;38.60
55785;DHT22;41709;52.536;5.688;2023-06-14T15:51:48;25.60;38.20